createdAt,value
2024-01-10T00:02:39.019Z,101476.72
2024-01-10T00:05:42.525Z,101480.41
2024-01-10T00:08:45.669Z,101478.88
2024-01-10T00:11:50.185Z,101476.69
2024-01-10T00:14:53.121Z,101476.31
2024-01-10T00:17:57.129Z,101480.72
2024-01-10T00:21:00.151Z,101484.94
2024-01-10T00:24:03.574Z,101487.03
2024-01-10T00:27:06.788Z,101485.41
2024-01-10T00:30:10.314Z,101486.44
2024-01-10T00:33:13.644Z,101488.19
2024-01-10T00:36:17.023Z,101486.44
2024-01-10T00:39:20.156Z,101483.56
2024-01-10T00:42:23.648Z,101487.84
2024-01-10T00:45:27.309Z,101491.28
2024-01-10T00:48:34.143Z,101490.69
2024-01-10T00:51:38.493Z,101497.03
2024-01-10T00:54:52.178Z,101491.13
2024-01-10T00:57:56.180Z,101491.22
2024-01-10T01:01:00.854Z,101492.62
2024-01-10T01:04:05.055Z,101502.59
2024-01-10T01:07:09.650Z,101505.09
2024-01-10T01:10:14.085Z,101510.38
2024-01-10T01:13:18.909Z,101509.81
2024-01-10T01:16:25.742Z,101509.44
2024-01-10T01:19:30.348Z,101505.41
2024-01-10T01:22:35.637Z,101503.00
2024-01-10T01:25:40.292Z,101506.53
2024-01-10T01:28:44.109Z,101508.22
2024-01-10T01:31:47.705Z,101504.87
2024-01-10T01:34:55.432Z,101502.94
2024-01-10T01:38:00.237Z,101498.19
2024-01-10T01:41:04.506Z,101501.28
2024-01-10T01:44:09.141Z,101496.00
2024-01-10T01:47:14.701Z,101494.63
2024-01-10T01:50:20.540Z,101495.72
2024-01-10T01:53:25.219Z,101499.62
2024-01-10T01:56:30.790Z,101494.53
2024-01-10T01:59:35.653Z,101501.00
2024-01-10T02:02:39.734Z,101490.44
2024-01-10T02:05:43.339Z,101491.91
2024-01-10T02:08:47.355Z,101493.72
2024-01-10T02:11:50.424Z,101498.00
2024-01-10T02:14:57.230Z,101490.28
2024-01-10T02:18:00.517Z,101486.31
2024-01-10T02:21:04.026Z,101495.50
2024-01-10T02:24:07.065Z,101498.94
2024-01-10T02:27:10.419Z,101489.19
2024-01-10T02:30:13.870Z,101490.81
2024-01-10T02:33:17.391Z,101490.00
2024-01-10T02:36:20.463Z,101491.69
2024-01-10T02:39:24.129Z,101494.97
2024-01-10T02:42:29.715Z,101500.41
2024-01-10T02:45:37.097Z,101496.97
2024-01-10T02:48:40.530Z,101498.56
2024-01-10T02:51:44.229Z,101490.84
2024-01-10T02:54:47.798Z,101488.09
2024-01-10T02:57:55.084Z,101483.38
2024-01-10T03:00:59.277Z,101490.50
2024-01-10T03:04:03.626Z,101492.94
2024-01-10T03:07:08.795Z,101489.31
2024-01-10T03:10:12.086Z,101489.53
2024-01-10T03:13:15.921Z,101484.09
2024-01-10T03:16:19.969Z,101481.44
2024-01-10T03:19:23.004Z,101470.87
2024-01-10T03:22:26.279Z,101479.41
2024-01-10T03:25:29.389Z,101480.22
2024-01-10T03:28:33.137Z,101475.97
2024-01-10T03:31:36.231Z,101474.94
2024-01-10T03:34:40.526Z,101474.13
2024-01-10T03:37:43.522Z,101478.25
2024-01-10T03:40:47.225Z,101475.44
2024-01-10T03:43:51.867Z,101472.78
2024-01-10T03:46:55.114Z,101478.88
2024-01-10T03:49:58.726Z,101472.44
2024-01-10T03:53:03.004Z,101473.31
2024-01-10T03:56:07.985Z,101466.19
2024-01-10T03:59:11.203Z,101477.56
2024-01-10T04:02:14.975Z,101469.47
2024-01-10T04:05:18.481Z,101473.78
2024-01-10T04:08:24.525Z,101474.16
2024-01-10T04:11:28.078Z,101468.13
2024-01-10T04:14:31.090Z,101468.56
2024-01-10T04:17:34.885Z,101457.41
2024-01-10T04:20:38.026Z,101466.72
2024-01-10T04:23:41.543Z,101461.25
2024-01-10T04:26:44.477Z,101471.37
2024-01-10T04:29:48.944Z,101464.41
2024-01-10T04:32:52.035Z,101469.47
2024-01-10T04:35:55.240Z,101485.53
2024-01-10T04:38:58.393Z,101478.63
2024-01-10T04:42:02.434Z,101483.53
2024-01-10T04:45:08.642Z,101488.22
2024-01-10T04:48:13.363Z,101492.91
2024-01-10T04:51:18.331Z,101491.50
2024-01-10T04:54:21.872Z,101496.41
2024-01-10T04:57:25.409Z,101492.38
2024-01-10T05:00:29.039Z,101484.28
2024-01-10T05:03:32.443Z,101489.19
2024-01-10T05:06:35.841Z,101492.84
2024-01-10T05:09:38.830Z,101488.38
2024-01-10T05:12:43.447Z,101485.97
2024-01-10T05:15:46.680Z,101480.69
2024-01-10T05:18:50.258Z,101484.28
2024-01-10T05:21:53.912Z,101495.59
2024-01-10T05:24:59.145Z,101489.88
2024-01-10T05:28:05.690Z,101478.88
2024-01-10T05:31:09.051Z,101482.81
2024-01-10T05:34:12.326Z,101483.31
2024-01-10T05:37:16.009Z,101486.56
2024-01-10T05:40:21.358Z,101486.16
2024-01-10T05:43:24.857Z,101487.37
2024-01-10T05:46:35.309Z,101488.63
2024-01-10T05:49:51.804Z,101485.25
2024-01-10T05:52:54.976Z,101485.03
2024-01-10T05:55:59.214Z,101486.69
2024-01-10T05:59:02.742Z,101473.28
2024-01-10T06:02:07.230Z,101481.19
2024-01-10T06:05:11.439Z,101473.94
2024-01-10T06:08:15.595Z,101487.16
2024-01-10T06:11:19.587Z,101482.09
2024-01-10T06:14:22.706Z,101484.94
2024-01-10T06:17:26.124Z,101490.22
2024-01-10T06:20:33.216Z,101489.62
2024-01-10T06:23:36.871Z,101483.75
2024-01-10T06:26:42.040Z,101491.44
2024-01-10T06:29:47.379Z,101500.38
2024-01-10T06:32:50.416Z,101501.00
2024-01-10T06:35:55.695Z,101496.72
2024-01-10T06:39:04.439Z,101503.34
2024-01-10T06:42:10.000Z,101507.41
2024-01-10T06:45:13.733Z,101505.59
2024-01-10T06:48:21.251Z,101513.47
2024-01-10T06:51:24.260Z,101510.59
2024-01-10T06:54:28.894Z,101513.22
2024-01-10T06:57:31.946Z,101512.53
2024-01-10T07:00:35.415Z,101517.78
2024-01-10T07:03:39.340Z,101516.34
2024-01-10T07:06:43.430Z,101515.63
2024-01-10T07:09:46.830Z,101520.38
2024-01-10T07:12:49.904Z,101523.16
2024-01-10T07:15:53.812Z,101515.63
2024-01-10T07:18:57.658Z,101519.81
2024-01-10T07:22:02.104Z,101523.06
2024-01-10T07:25:06.610Z,101512.41
2024-01-10T07:28:10.405Z,101514.50
2024-01-10T07:31:14.200Z,101518.66
2024-01-10T07:34:17.366Z,101522.00
2024-01-10T07:37:22.325Z,101519.66
2024-01-10T07:40:26.595Z,101527.00
2024-01-10T07:43:32.817Z,101526.56
2024-01-10T07:46:37.234Z,101526.28
2024-01-10T07:49:40.497Z,101530.44
2024-01-10T07:52:45.412Z,101526.03
2024-01-10T07:55:51.786Z,101531.25
2024-01-10T07:58:56.367Z,101538.13
2024-01-10T08:02:02.356Z,101531.75
2024-01-10T08:05:07.231Z,101536.53
2024-01-10T08:08:10.584Z,101542.09
2024-01-10T08:11:13.958Z,101538.78
2024-01-10T08:14:17.574Z,101535.84
2024-01-10T08:17:21.345Z,101535.97
2024-01-10T08:20:24.481Z,101534.84
2024-01-10T08:23:28.064Z,101542.44
2024-01-10T08:26:31.882Z,101540.66
2024-01-10T08:29:38.282Z,101548.16
2024-01-10T08:32:41.402Z,101545.63
2024-01-10T08:35:44.809Z,101552.56
2024-01-10T08:38:48.635Z,101553.34
2024-01-10T08:41:51.955Z,101562.78
2024-01-10T08:44:54.905Z,101563.38
2024-01-10T08:48:00.624Z,101564.63
2024-01-10T08:51:06.057Z,101564.88
2024-01-10T08:54:10.452Z,101567.28
2024-01-10T08:57:13.376Z,101566.69
2024-01-10T09:00:21.589Z,101563.06
2024-01-10T09:03:24.842Z,101564.88
2024-01-10T09:06:28.969Z,101562.50
2024-01-10T09:09:32.810Z,101561.44
2024-01-10T09:12:36.514Z,101556.53
2024-01-10T09:15:39.486Z,101558.72
2024-01-10T09:18:42.903Z,101552.19
2024-01-10T09:21:47.088Z,101550.19
2024-01-10T09:24:50.373Z,101545.56
2024-01-10T09:27:53.359Z,101545.69
2024-01-10T09:30:56.754Z,101551.19
2024-01-10T09:34:00.369Z,101554.56
2024-01-10T09:37:05.641Z,101550.72
2024-01-10T09:40:14.184Z,101548.97
2024-01-10T09:43:17.982Z,101548.87
2024-01-10T09:46:24.334Z,101545.81
2024-01-10T09:49:27.940Z,101541.44
2024-01-10T09:52:39.028Z,101535.72
2024-01-10T09:55:43.558Z,101541.31
2024-01-10T09:58:50.748Z,101528.31
2024-01-10T10:01:54.892Z,101528.75
2024-01-10T10:05:01.204Z,101521.03
2024-01-10T10:08:05.275Z,101524.66
2024-01-10T10:11:14.803Z,101516.94
2024-01-10T10:14:20.091Z,101518.22
2024-01-10T10:17:26.343Z,101512.28
2024-01-10T10:20:37.634Z,101503.34
2024-01-10T10:23:42.854Z,101502.59
2024-01-10T10:26:45.867Z,101506.53
2024-01-10T10:29:50.024Z,101497.47
2024-01-10T10:32:53.159Z,101498.31
2024-01-10T10:35:59.577Z,101494.47
2024-01-10T10:39:04.288Z,101488.19
2024-01-10T10:42:10.675Z,101494.78
2024-01-10T10:45:20.698Z,101487.91
2024-01-10T10:48:24.353Z,101493.97
2024-01-10T10:51:27.511Z,101487.25
2024-01-10T10:54:32.986Z,101484.91
2024-01-10T10:57:36.333Z,101485.66
2024-01-10T11:00:39.872Z,101478.56
2024-01-10T11:03:45.942Z,101473.91
2024-01-10T11:06:52.413Z,101471.63
2024-01-10T11:09:56.045Z,101472.16
2024-01-10T11:13:26.165Z,101472.62
2024-01-10T11:16:50.964Z,101464.72
2024-01-10T11:20:23.033Z,101469.75
2024-01-10T11:23:42.933Z,101465.25
2024-01-10T11:26:48.131Z,101453.87
2024-01-10T11:29:51.656Z,101450.97
2024-01-10T11:32:59.407Z,101443.50
2024-01-10T11:36:13.603Z,101446.41
2024-01-10T11:39:18.187Z,101449.03
2024-01-10T11:42:41.881Z,101436.72
2024-01-10T11:45:56.713Z,101430.41
2024-01-10T11:49:00.603Z,101429.34
2024-01-10T11:52:04.918Z,101420.19
2024-01-10T11:55:09.905Z,101430.03
2024-01-10T11:58:13.277Z,101425.12
2024-01-10T12:01:17.663Z,101424.41
2024-01-10T12:07:29.266Z,101417.84
2024-01-10T12:10:38.962Z,101417.06
2024-01-10T12:13:43.345Z,101415.66
2024-01-10T12:16:46.815Z,101413.63
2024-01-10T12:19:50.596Z,101414.44
2024-01-10T12:22:54.022Z,101408.97
2024-01-10T12:25:57.018Z,101405.84
2024-01-10T12:29:01.373Z,101404.59
2024-01-10T12:32:05.134Z,101408.34
2024-01-10T12:35:09.148Z,101406.28
2024-01-10T12:38:12.242Z,101396.44
2024-01-10T12:41:22.168Z,101395.12
2024-01-10T12:44:29.469Z,101396.81
2024-01-10T12:47:37.423Z,101392.59
2024-01-10T12:50:40.847Z,101382.75
2024-01-10T12:53:45.220Z,101382.97
2024-01-10T12:56:48.448Z,101384.25
2024-01-10T12:59:52.817Z,101390.63
2024-01-10T13:02:56.080Z,101385.34
2024-01-10T13:06:00.047Z,101383.13
2024-01-10T13:09:03.027Z,101380.75
2024-01-10T13:12:06.779Z,101387.81
2024-01-10T13:15:10.196Z,101381.25
2024-01-10T13:18:14.810Z,101376.13
2024-01-10T13:21:17.942Z,101374.62
2024-01-10T13:24:22.407Z,101376.88
2024-01-10T13:27:25.345Z,101373.16
2024-01-10T13:30:30.533Z,101369.97
2024-01-10T13:33:35.836Z,101373.78
2024-01-10T13:36:42.563Z,101360.47
2024-01-10T13:39:48.196Z,101360.84
2024-01-10T13:42:52.155Z,101361.44
2024-01-10T13:45:55.233Z,101358.31
2024-01-10T13:48:58.660Z,101355.78
2024-01-10T13:52:01.612Z,101353.28
2024-01-10T13:55:07.868Z,101357.47
2024-01-10T13:58:11.843Z,101367.16
2024-01-10T14:01:15.663Z,101353.94
2024-01-10T14:04:18.961Z,101356.56
2024-01-10T14:07:23.247Z,101359.50
2024-01-10T14:10:26.486Z,101352.94
2024-01-10T14:13:29.499Z,101347.38
2024-01-10T14:16:32.739Z,101348.56
2024-01-10T14:19:35.946Z,101346.09
2024-01-10T14:22:39.357Z,101340.75
2024-01-10T14:25:43.838Z,101347.50
2024-01-10T14:28:47.248Z,101348.34
2024-01-10T14:32:03.445Z,101346.03
2024-01-10T14:35:15.111Z,101349.03
2024-01-10T14:38:19.116Z,101343.28
2024-01-10T14:41:22.657Z,101353.50
2024-01-10T14:44:25.724Z,101348.19
2024-01-10T14:47:33.253Z,101348.22
2024-01-10T14:50:36.471Z,101352.47
2024-01-10T14:53:41.156Z,101345.78
2024-01-10T14:56:44.953Z,101344.06
2024-01-10T14:59:49.679Z,101352.41
2024-01-10T15:02:52.832Z,101345.37
2024-01-10T15:05:57.625Z,101348.06
2024-01-10T15:09:04.696Z,101345.81
2024-01-10T15:12:10.030Z,101351.75
2024-01-10T15:15:14.164Z,101356.19
2024-01-10T15:18:17.530Z,101355.19
2024-01-10T15:21:20.963Z,101356.34
2024-01-10T15:24:24.213Z,101354.00
2024-01-10T15:27:29.326Z,101357.22
2024-01-10T15:30:38.426Z,101348.09
2024-01-10T15:33:48.168Z,101351.53
2024-01-10T15:36:53.353Z,101353.91
2024-01-10T15:39:56.340Z,101363.97
2024-01-10T15:43:01.321Z,101348.44
2024-01-10T15:46:07.852Z,101347.31
2024-01-10T15:49:12.562Z,101348.31
2024-01-10T15:52:16.972Z,101355.69
2024-01-10T15:55:21.241Z,101345.22
2024-01-10T15:58:25.734Z,101349.97
2024-01-10T16:01:30.123Z,101351.50
2024-01-10T16:04:33.500Z,101351.13
2024-01-10T16:07:37.661Z,101344.69
2024-01-10T16:10:42.538Z,101352.63
2024-01-10T16:13:45.789Z,101344.28
2024-01-10T16:19:52.822Z,101342.91
2024-01-10T16:22:56.116Z,101343.16
2024-01-10T16:29:02.713Z,101347.31
2024-01-10T16:32:08.705Z,101352.84
2024-01-10T16:35:16.363Z,101348.78
2024-01-10T16:38:21.217Z,101348.97
2024-01-10T16:41:25.361Z,101350.53
2024-01-10T16:44:28.391Z,101353.66
2024-01-10T16:47:32.370Z,101349.56
2024-01-10T16:50:37.384Z,101347.19
2024-01-10T16:53:40.532Z,101344.19
2024-01-10T16:56:44.475Z,101353.72
2024-01-10T16:59:48.048Z,101348.59
2024-01-10T17:05:54.893Z,101359.09
2024-01-10T17:08:58.044Z,101359.03
2024-01-10T17:12:02.014Z,101354.78
2024-01-10T17:15:05.358Z,101359.88
2024-01-10T17:18:08.882Z,101358.72
2024-01-10T17:21:12.187Z,101357.31
2024-01-10T17:24:15.673Z,101360.16
2024-01-10T17:27:20.356Z,101356.47
2024-01-10T17:30:30.921Z,101360.16
2024-01-10T17:33:35.340Z,101356.94
2024-01-10T17:36:38.679Z,101349.13
2024-01-10T17:39:42.122Z,101348.03
2024-01-10T17:42:45.468Z,101344.25
2024-01-10T17:45:48.644Z,101341.06
2024-01-10T17:48:53.701Z,101341.06
2024-01-10T17:51:57.448Z,101340.22
2024-01-10T17:55:01.042Z,101341.28
2024-01-10T17:58:04.304Z,101343.38
2024-01-10T18:01:08.425Z,101330.34
2024-01-10T18:04:14.750Z,101340.09
2024-01-10T18:07:18.395Z,101337.44
2024-01-10T18:10:22.129Z,101326.53
2024-01-10T18:13:25.396Z,101321.84
2024-01-10T18:16:30.907Z,101322.34
2024-01-10T18:19:34.349Z,101322.81
2024-01-10T18:22:38.159Z,101309.62
2024-01-10T18:25:41.817Z,101313.00
2024-01-10T18:28:45.230Z,101314.28
2024-01-10T18:31:48.993Z,101313.09
2024-01-10T18:34:52.495Z,101313.84
2024-01-10T18:37:55.821Z,101308.47
2024-01-10T18:40:59.267Z,101313.12
2024-01-10T18:44:05.218Z,101311.75
2024-01-10T18:47:10.571Z,101304.53
2024-01-10T18:50:15.034Z,101292.06
2024-01-10T18:53:18.839Z,101294.72
2024-01-10T18:56:22.575Z,101301.87
2024-01-10T18:59:28.407Z,101297.53
2024-01-10T19:02:31.793Z,101297.28
2024-01-10T19:05:35.541Z,101294.87
2024-01-10T19:08:38.870Z,101292.53
2024-01-10T19:11:42.758Z,101289.59
2024-01-10T19:14:48.807Z,101287.06
2024-01-10T19:17:52.228Z,101304.28
2024-01-10T19:20:55.249Z,101298.91
2024-01-10T19:23:58.630Z,101293.34
2024-01-10T19:27:04.430Z,101303.16
2024-01-10T19:30:13.064Z,101291.84
2024-01-10T19:33:16.372Z,101294.09
2024-01-10T19:36:22.003Z,101303.31
2024-01-10T19:39:26.918Z,101309.66
2024-01-10T19:42:31.515Z,101302.75
2024-01-10T19:45:36.772Z,101308.53
2024-01-10T19:48:41.070Z,101304.03
2024-01-10T19:51:47.378Z,101311.69
2024-01-10T19:54:51.098Z,101312.25
2024-01-10T19:57:54.456Z,101304.28
2024-01-10T20:00:58.489Z,101300.97
2024-01-10T20:04:01.792Z,101295.28
2024-01-10T20:07:06.282Z,101294.94
2024-01-10T20:10:11.136Z,101292.13
2024-01-10T20:13:16.153Z,101298.06
2024-01-10T20:16:21.765Z,101300.63
2024-01-10T20:19:27.912Z,101297.47
2024-01-10T20:22:31.645Z,101305.59
2024-01-10T20:25:35.098Z,101304.44
2024-01-10T20:28:39.595Z,101299.88
2024-01-10T20:31:42.775Z,101292.38
2024-01-10T20:34:48.535Z,101292.13
2024-01-10T20:37:52.548Z,101290.63
2024-01-10T20:40:56.066Z,101285.56
2024-01-10T20:43:59.849Z,101291.13
2024-01-10T20:47:03.745Z,101289.00
2024-01-10T20:50:09.686Z,101291.34
2024-01-10T20:53:16.573Z,101287.09
2024-01-10T20:56:19.807Z,101284.09
2024-01-10T20:59:23.181Z,101281.44
2024-01-10T21:02:28.099Z,101282.16
2024-01-10T21:05:31.636Z,101274.13
2024-01-10T21:08:34.759Z,101270.91
2024-01-10T21:11:38.670Z,101275.66
2024-01-10T21:14:46.505Z,101265.53
2024-01-10T21:17:50.433Z,101268.41
2024-01-10T21:20:53.761Z,101270.87
2024-01-10T21:23:57.139Z,101271.41
2024-01-10T21:27:01.286Z,101271.50
2024-01-10T21:30:06.206Z,101272.00
2024-01-10T21:33:12.548Z,101265.09
2024-01-10T21:36:16.015Z,101273.97
2024-01-10T21:39:19.399Z,101272.50
2024-01-10T21:42:24.485Z,101265.25
2024-01-10T21:45:27.579Z,101270.81
2024-01-10T21:48:30.891Z,101262.41
2024-01-10T21:51:34.777Z,101262.41
2024-01-10T21:54:38.103Z,101255.97
2024-01-10T21:57:42.017Z,101253.22
2024-01-10T22:00:45.510Z,101253.13
2024-01-10T22:03:51.155Z,101260.59
2024-01-10T22:06:54.129Z,101257.34
2024-01-10T22:09:57.969Z,101261.00
2024-01-10T22:13:01.016Z,101258.56
2024-01-10T22:16:04.904Z,101261.59
2024-01-10T22:19:10.288Z,101263.91
2024-01-10T22:22:13.516Z,101264.63
2024-01-10T22:25:16.264Z,101256.00
2024-01-10T22:28:19.606Z,101257.03
2024-01-10T22:31:22.564Z,101268.09
2024-01-10T22:34:26.908Z,101267.72
2024-01-10T22:37:30.058Z,101264.53
2024-01-10T22:40:33.703Z,101259.47
2024-01-10T22:43:36.733Z,101262.56
2024-01-10T22:46:40.010Z,101258.06
2024-01-10T22:49:43.348Z,101268.34
2024-01-10T22:52:46.529Z,101264.63
2024-01-10T22:55:49.381Z,101262.00
2024-01-10T22:58:55.608Z,101263.03
2024-01-10T23:01:58.644Z,101253.03
2024-01-10T23:05:01.910Z,101252.44
2024-01-10T23:08:05.446Z,101249.66
2024-01-10T23:11:08.838Z,101245.72
2024-01-10T23:14:11.915Z,101249.66
2024-01-10T23:17:15.233Z,101235.97
2024-01-10T23:20:20.075Z,101237.47
2024-01-10T23:23:23.514Z,101231.13
2024-01-10T23:26:29.423Z,101237.25
2024-01-10T23:29:32.881Z,101238.50
2024-01-10T23:32:37.526Z,101235.28
2024-01-10T23:35:48.398Z,101233.69
2024-01-10T23:38:54.009Z,101226.44
2024-01-10T23:41:57.194Z,101222.56
2024-01-10T23:45:00.804Z,101219.56
2024-01-10T23:48:04.831Z,101220.50
2024-01-10T23:51:07.828Z,101217.84
2024-01-10T23:54:11.205Z,101213.59
2024-01-10T23:57:14.740Z,101209.56
